createdAt,value
2023-03-26T00:01:15.573Z,99510.31
2023-03-26T00:03:45.146Z,99510.53
2023-03-26T00:06:14.127Z,99507.56
2023-03-26T00:08:42.796Z,99517.19
2023-03-26T00:11:11.321Z,99514.78
2023-03-26T00:13:38.860Z,99511.19
2023-03-26T00:16:05.706Z,99507.78
2023-03-26T00:18:35.006Z,99518.41
2023-03-26T00:21:03.637Z,99522.81
2023-03-26T00:23:31.690Z,99521.22
2023-03-26T00:25:58.278Z,99508.47
2023-03-26T00:28:26.325Z,99510.63
2023-03-26T00:31:01.526Z,99507.56
2023-03-26T00:33:28.709Z,99493.38
2023-03-26T00:35:58.895Z,99489.03
2023-03-26T00:38:26.545Z,99494.88
2023-03-26T00:40:54.499Z,99491.69
2023-03-26T00:43:22.247Z,99485.06
2023-03-26T00:45:51.782Z,99489.03
2023-03-26T00:48:19.124Z,99481.00
2023-03-26T00:50:47.238Z,99474.25
2023-03-26T00:53:16.093Z,99467.66
2023-03-26T00:55:45.125Z,99473.31
2023-03-26T00:58:13.431Z,99468.78
2023-03-26T01:00:48.464Z,99460.63
2023-03-26T01:03:27.204Z,99469.63
2023-03-26T01:06:02.772Z,99469.06
2023-03-26T01:08:39.359Z,99458.88
2023-03-26T01:11:14.242Z,99459.91
2023-03-26T01:13:54.109Z,99460.91
2023-03-26T01:16:31.443Z,99459.91
2023-03-26T01:18:58.869Z,99469.06
2023-03-26T01:21:30.248Z,99462.84
2023-03-26T01:24:07.906Z,99459.22
2023-03-26T01:26:56.303Z,99463.00
2023-03-26T01:29:29.569Z,99459.72
2023-03-26T01:32:19.622Z,99456.91
2023-03-26T01:35:08.231Z,99460.66
2023-03-26T01:37:53.613Z,99462.06
2023-03-26T01:40:25.518Z,99460.81
2023-03-26T01:43:03.921Z,99461.59
2023-03-26T01:45:34.736Z,99455.75
2023-03-26T01:48:01.850Z,99457.34
2023-03-26T01:50:28.495Z,99462.09
2023-03-26T01:52:55.292Z,99455.66
2023-03-26T01:55:26.341Z,99454.00
2023-03-26T01:58:15.972Z,99458.97
2023-03-26T02:00:49.213Z,99453.00
2023-03-26T02:03:22.461Z,99457.97
2023-03-26T02:06:11.232Z,99453.34
2023-03-26T02:08:42.541Z,99462.94
2023-03-26T02:11:16.017Z,99461.34
2023-03-26T02:13:45.372Z,99461.91
2023-03-26T02:16:17.408Z,99448.94
2023-03-26T02:18:46.092Z,99451.66
2023-03-26T02:21:21.877Z,99454.59
2023-03-26T02:24:02.784Z,99449.97
2023-03-26T02:26:31.953Z,99449.00
2023-03-26T02:28:59.286Z,99447.38
2023-03-26T02:31:28.716Z,99446.94
2023-03-26T02:33:55.664Z,99446.16
2023-03-26T02:36:27.343Z,99455.19
2023-03-26T02:38:55.843Z,99454.59
2023-03-26T02:41:22.511Z,99447.25
2023-03-26T02:43:49.116Z,99444.31
2023-03-26T02:46:16.105Z,99437.53
2023-03-26T02:48:43.996Z,99438.88
2023-03-26T02:51:10.873Z,99438.47
2023-03-26T02:53:37.577Z,99434.84
2023-03-26T02:56:04.628Z,99439.00
2023-03-26T02:58:31.267Z,99441.19
2023-03-26T03:00:57.860Z,99446.81
2023-03-26T03:03:26.382Z,99443.66
2023-03-26T03:05:54.794Z,99440.47
2023-03-26T03:08:24.220Z,99444.53
2023-03-26T03:11:02.033Z,99448.56
2023-03-26T03:13:29.333Z,99437.63
2023-03-26T03:15:56.269Z,99437.63
2023-03-26T03:18:23.131Z,99442.25
2023-03-26T03:20:50.043Z,99439.88
2023-03-26T03:23:16.702Z,99435.66
2023-03-26T03:25:43.473Z,99444.25
2023-03-26T03:28:10.406Z,99445.63
2023-03-26T03:30:37.364Z,99447.00
2023-03-26T03:33:06.141Z,99439.19
2023-03-26T03:35:33.692Z,99443.59
2023-03-26T03:38:00.852Z,99438.84
2023-03-26T03:40:27.671Z,99439.28
2023-03-26T03:42:54.329Z,99445.72
2023-03-26T03:45:21.170Z,99446.72
2023-03-26T03:47:47.794Z,99440.38
2023-03-26T03:50:14.396Z,99448.97
2023-03-26T03:52:40.937Z,99447.94
2023-03-26T03:55:07.792Z,99450.56
2023-03-26T03:57:34.660Z,99448.31
2023-03-26T04:00:01.466Z,99446.72
2023-03-26T04:02:34.600Z,99452.94
2023-03-26T04:05:03.194Z,99445.50
2023-03-26T04:07:33.130Z,99443.69
2023-03-26T04:10:02.022Z,99438.28
2023-03-26T04:12:29.333Z,99450.03
2023-03-26T04:14:56.682Z,99442.81
2023-03-26T04:17:23.385Z,99448.78
2023-03-26T04:19:52.949Z,99440.00
2023-03-26T04:22:19.923Z,99440.00
2023-03-26T04:24:48.760Z,99439.41
2023-03-26T04:27:20.254Z,99446.41
2023-03-26T04:29:50.308Z,99441.66
2023-03-26T04:32:34.215Z,99438.03
2023-03-26T04:35:04.050Z,99445.63
2023-03-26T04:37:42.193Z,99443.81
2023-03-26T04:40:22.205Z,99443.03
2023-03-26T04:42:48.803Z,99433.66
2023-03-26T04:45:17.786Z,99442.25
2023-03-26T04:47:46.445Z,99439.66
2023-03-26T04:50:13.392Z,99443.03
2023-03-26T04:52:40.967Z,99437.81
2023-03-26T04:55:21.268Z,99442.81
2023-03-26T04:57:51.440Z,99451.63
2023-03-26T05:00:21.364Z,99443.25
2023-03-26T05:02:50.862Z,99447.22
2023-03-26T05:05:18.145Z,99446.41
2023-03-26T05:07:45.240Z,99447.00
2023-03-26T05:10:14.763Z,99449.59
2023-03-26T05:12:42.086Z,99450.63
2023-03-26T05:15:11.416Z,99448.56
2023-03-26T05:17:41.654Z,99451.16
2023-03-26T05:20:18.282Z,99448.03
2023-03-26T05:22:45.009Z,99452.19
2023-03-26T05:25:11.588Z,99452.19
2023-03-26T05:27:38.627Z,99453.41
2023-03-26T05:30:07.319Z,99451.84
2023-03-26T05:32:34.683Z,99453.06
2023-03-26T05:35:01.736Z,99457.72
2023-03-26T05:37:32.163Z,99451.47
2023-03-26T05:39:59.876Z,99460.66
2023-03-26T05:42:27.046Z,99460.34
2023-03-26T05:44:53.590Z,99463.06
2023-03-26T05:47:20.458Z,99459.03
2023-03-26T05:49:47.211Z,99455.41
2023-03-26T05:52:16.189Z,99454.72
2023-03-26T05:54:42.905Z,99458.72
2023-03-26T05:57:09.570Z,99458.44
2023-03-26T05:59:36.678Z,99467.59
2023-03-26T06:02:03.600Z,99472.13
2023-03-26T06:04:31.916Z,99471.75
2023-03-26T06:06:58.736Z,99476.19
2023-03-26T06:09:25.424Z,99475.16
2023-03-26T06:11:52.013Z,99484.56
2023-03-26T06:14:18.592Z,99485.25
2023-03-26T06:16:45.128Z,99482.69
2023-03-26T06:19:11.852Z,99479.53
2023-03-26T06:21:38.669Z,99482.94
2023-03-26T06:24:05.572Z,99480.31
2023-03-26T06:26:32.507Z,99477.28
2023-03-26T06:28:59.048Z,99480.31
2023-03-26T06:31:25.698Z,99483.84
2023-03-26T06:33:53.247Z,99486.94
2023-03-26T06:36:19.924Z,99491.13
2023-03-26T06:38:46.569Z,99503.13
2023-03-26T06:41:14.368Z,99489.78
2023-03-26T06:43:41.063Z,99495.91
2023-03-26T06:46:07.778Z,99503.72
2023-03-26T06:48:34.518Z,99501.69
2023-03-26T06:51:01.123Z,99512.75
2023-03-26T06:53:27.740Z,99503.38
2023-03-26T06:55:54.661Z,99508.34
2023-03-26T06:58:21.891Z,99508.69
2023-03-26T07:00:48.542Z,99513.88
2023-03-26T07:03:17.210Z,99502.97
2023-03-26T07:05:43.905Z,99507.28
2023-03-26T07:08:10.587Z,99505.59
2023-03-26T07:10:37.233Z,99511.44
2023-03-26T07:13:03.862Z,99518.59
2023-03-26T07:15:30.742Z,99516.13
2023-03-26T07:17:57.341Z,99515.44
2023-03-26T07:20:24.717Z,99518.06
2023-03-26T07:22:51.886Z,99511.81
2023-03-26T07:25:19.549Z,99518.25
2023-03-26T07:28:06.534Z,99523.56
2023-03-26T07:30:57.835Z,99524.38
2023-03-26T07:33:53.722Z,99518.38
2023-03-26T07:36:47.539Z,99513.75
2023-03-26T07:39:29.420Z,99522.72
2023-03-26T07:42:08.536Z,99526.00
2023-03-26T07:44:42.245Z,99532.56
2023-03-26T07:47:19.839Z,99526.63
2023-03-26T07:49:46.663Z,99528.25
2023-03-26T07:52:13.378Z,99522.31
2023-03-26T07:54:40.575Z,99526.53
2023-03-26T07:57:21.090Z,99532.28
2023-03-26T08:00:12.415Z,99526.38
2023-03-26T08:03:17.474Z,99530.16
2023-03-26T08:05:53.273Z,99531.72
2023-03-26T08:08:27.137Z,99532.19
2023-03-26T08:11:10.031Z,99526.56
2023-03-26T08:13:57.944Z,99528.44
2023-03-26T08:16:36.764Z,99531.72
2023-03-26T08:19:27.624Z,99524.88
2023-03-26T08:22:00.386Z,99528.56
2023-03-26T08:24:43.485Z,99524.94
2023-03-26T08:27:22.105Z,99514.19
2023-03-26T08:30:21.725Z,99525.00
2023-03-26T08:33:00.221Z,99517.00
2023-03-26T08:35:28.437Z,99502.44
2023-03-26T08:37:55.409Z,99524.75
2023-03-26T08:41:03.767Z,99525.63
2023-03-26T08:43:47.697Z,99524.44
2023-03-26T08:46:33.900Z,99531.19
2023-03-26T08:49:41.181Z,99520.84
2023-03-26T08:52:24.590Z,99528.63
2023-03-26T08:54:57.398Z,99529.00
2023-03-26T08:57:25.285Z,99522.09
2023-03-26T09:00:15.698Z,99522.63
2023-03-26T09:02:45.049Z,99520.59
2023-03-26T09:06:05.765Z,99533.72
2023-03-26T09:08:53.854Z,99527.47
2023-03-26T09:11:59.995Z,99528.28
2023-03-26T09:14:51.506Z,99530.81
2023-03-26T09:17:57.737Z,99519.84
2023-03-26T09:20:30.962Z,99525.81
2023-03-26T09:22:57.460Z,99521.06
2023-03-26T09:26:01.825Z,99519.00
2023-03-26T09:28:34.610Z,99524.16
2023-03-26T09:31:16.812Z,99524.28
2023-03-26T09:34:04.976Z,99515.28
2023-03-26T09:36:55.549Z,99521.94
2023-03-26T09:39:29.790Z,99509.66
2023-03-26T09:42:23.130Z,99526.66
2023-03-26T09:45:08.985Z,99515.72
2023-03-26T09:48:32.297Z,99522.59
2023-03-26T09:51:07.800Z,99516.50
2023-03-26T09:53:38.548Z,99509.81
2023-03-26T09:56:25.780Z,99511.56
2023-03-26T09:59:24.880Z,99508.84
2023-03-26T10:01:57.700Z,99507.81
2023-03-26T10:04:52.027Z,99504.53
2023-03-26T10:07:36.562Z,99502.94
2023-03-26T10:10:40.255Z,99508.25
2023-03-26T10:13:22.009Z,99509.91
2023-03-26T10:16:21.355Z,99503.59
2023-03-26T10:19:20.135Z,99512.16
2023-03-26T10:22:25.772Z,99514.09
2023-03-26T10:25:17.402Z,99516.69
2023-03-26T10:28:18.347Z,99525.72
2023-03-26T10:30:54.274Z,99536.81
2023-03-26T10:33:27.205Z,99537.63
2023-03-26T10:36:07.992Z,99543.34
2023-03-26T10:38:59.580Z,99541.13
2023-03-26T10:41:49.431Z,99534.66
2023-03-26T10:44:48.578Z,99531.91
2023-03-26T10:47:44.181Z,99533.16
2023-03-26T10:50:25.891Z,99530.06
2023-03-26T10:52:57.343Z,99526.22
2023-03-26T10:55:40.259Z,99531.91
2023-03-26T10:58:24.003Z,99536.97
2023-03-26T11:01:19.802Z,99531.03
2023-03-26T11:03:46.404Z,99526.91
2023-03-26T11:06:34.516Z,99516.94
2023-03-26T11:09:24.589Z,99518.44
2023-03-26T11:11:57.030Z,99526.56
2023-03-26T11:15:01.708Z,99529.09
2023-03-26T11:17:41.680Z,99519.69
2023-03-26T11:20:28.953Z,99519.94
2023-03-26T11:23:26.071Z,99528.56
2023-03-26T11:26:11.150Z,99527.63
2023-03-26T11:29:03.128Z,99525.75
2023-03-26T11:31:46.177Z,99527.84
2023-03-26T11:34:16.684Z,99524.63
2023-03-26T11:36:53.622Z,99523.22
2023-03-26T11:39:33.142Z,99513.53
2023-03-26T11:42:11.215Z,99512.97
2023-03-26T11:44:48.070Z,99511.84
2023-03-26T11:47:19.429Z,99510.81
2023-03-26T11:49:50.089Z,99518.91
2023-03-26T11:52:17.027Z,99507.00
2023-03-26T11:54:48.180Z,99508.81
2023-03-26T11:57:22.729Z,99504.25
2023-03-26T12:00:08.007Z,99505.13
2023-03-26T12:02:41.463Z,99497.56
2023-03-26T12:05:14.724Z,99489.97
2023-03-26T12:07:45.851Z,99489.88
2023-03-26T12:10:38.788Z,99493.53
2023-03-26T12:13:28.199Z,99497.84
2023-03-26T12:15:59.851Z,99497.28
2023-03-26T12:18:28.297Z,99499.75
2023-03-26T12:21:11.706Z,99497.38
2023-03-26T12:24:29.424Z,99500.63
2023-03-26T12:27:21.087Z,99536.16
2023-03-26T12:30:21.533Z,99538.03
2023-03-26T12:32:53.036Z,99539.41
2023-03-26T12:35:27.335Z,99549.78
2023-03-26T12:38:13.959Z,99538.91
2023-03-26T12:40:42.625Z,99540.72
2023-03-26T12:44:50.482Z,99532.81
2023-03-26T12:47:58.452Z,99535.63
2023-03-26T12:49:16.413Z,99521.34
2023-03-26T12:51:52.939Z,99507.22
2023-03-26T12:54:28.896Z,99507.06
2023-03-26T12:57:16.867Z,99497.41
2023-03-26T13:00:10.796Z,99498.56
2023-03-26T13:03:06.835Z,99488.66
2023-03-26T13:05:34.144Z,99488.03
2023-03-26T13:08:35.094Z,99487.09
2023-03-26T13:11:20.850Z,99487.34
2023-03-26T13:14:18.565Z,99480.31
2023-03-26T13:16:53.154Z,99481.16
2023-03-26T13:19:44.978Z,99475.72
2023-03-26T13:22:33.069Z,99476.28
2023-03-26T13:25:07.528Z,99476.94
2023-03-26T13:27:50.219Z,99480.72
2023-03-26T13:30:41.561Z,99469.88
2023-03-26T13:33:26.451Z,99472.56
2023-03-26T13:36:24.198Z,99466.41
2023-03-26T13:39:22.511Z,99465.28
2023-03-26T13:42:19.900Z,99463.44
2023-03-26T13:45:04.312Z,99466.06
2023-03-26T13:47:36.897Z,99457.28
2023-03-26T13:50:14.844Z,99456.28
2023-03-26T13:53:13.230Z,99461.31
2023-03-26T13:55:43.701Z,99463.88
2023-03-26T13:58:25.735Z,99460.06
2023-03-26T14:01:10.090Z,99460.25
2023-03-26T14:06:26.749Z,99459.78
2023-03-26T14:09:07.550Z,99466.31
2023-03-26T14:11:49.366Z,99464.69
2023-03-26T14:14:34.833Z,99467.66
2023-03-26T14:17:53.600Z,99467.28
2023-03-26T14:20:41.979Z,99470.97
2023-03-26T14:23:20.547Z,99470.41
2023-03-26T14:26:05.716Z,99469.56
2023-03-26T14:29:05.838Z,99463.53
2023-03-26T14:31:35.485Z,99471.50
2023-03-26T14:34:24.340Z,99469.63
2023-03-26T14:37:30.068Z,99477.50
2023-03-26T14:40:43.261Z,99472.03
2023-03-26T14:43:09.793Z,99474.97
2023-03-26T14:45:45.194Z,99475.28
2023-03-26T14:48:48.268Z,99470.84
2023-03-26T14:51:34.007Z,99466.88
2023-03-26T14:57:16.581Z,99467.56
2023-03-26T15:00:16.659Z,99463.84
2023-03-26T15:03:39.964Z,99474.22
2023-03-26T15:06:51.075Z,99472.66
2023-03-26T15:09:41.808Z,99472.28
2023-03-26T15:12:29.863Z,99475.78
2023-03-26T15:15:34.477Z,99464.06
2023-03-26T15:18:19.282Z,99470.44
2023-03-26T15:21:04.169Z,99472.25
2023-03-26T15:23:49.010Z,99468.09
2023-03-26T15:26:37.992Z,99468.09
2023-03-26T15:29:27.116Z,99465.03
2023-03-26T15:31:57.617Z,99460.19
2023-03-26T15:34:58.604Z,99455.22
2023-03-26T15:37:50.372Z,99452.81
2023-03-26T15:40:45.591Z,99453.00
2023-03-26T15:43:13.110Z,99448.03
2023-03-26T15:45:44.080Z,99450.88
2023-03-26T15:48:11.540Z,99449.06
2023-03-26T15:51:03.087Z,99444.72
2023-03-26T15:54:04.131Z,99450.78
2023-03-26T15:56:53.165Z,99447.53
2023-03-26T15:59:57.513Z,99448.25
2023-03-26T16:02:40.282Z,99446.03
2023-03-26T16:05:22.166Z,99454.78
2023-03-26T16:08:15.010Z,99454.47
2023-03-26T16:10:52.963Z,99458.34
2023-03-26T16:13:19.645Z,99449.72
2023-03-26T16:16:02.102Z,99451.69
2023-03-26T16:18:31.129Z,99439.34
2023-03-26T16:21:30.439Z,99453.19
2023-03-26T16:24:08.229Z,99444.25
2023-03-26T16:26:43.938Z,99454.00
2023-03-26T16:29:22.354Z,99461.75
2023-03-26T16:32:05.868Z,99463.94
2023-03-26T16:34:45.114Z,99459.88
2023-03-26T16:37:36.535Z,99458.44
2023-03-26T16:40:20.856Z,99458.00
2023-03-26T16:42:58.266Z,99451.56
2023-03-26T16:45:33.214Z,99451.13
2023-03-26T16:48:36.594Z,99454.31
2023-03-26T16:51:16.066Z,99457.50
2023-03-26T16:53:53.512Z,99454.47
2023-03-26T16:56:47.579Z,99453.44
2023-03-26T16:59:29.489Z,99459.22
2023-03-26T17:02:05.189Z,99456.19
2023-03-26T17:04:34.441Z,99452.31
2023-03-26T17:07:37.725Z,99454.66
2023-03-26T17:10:11.995Z,99451.69
2023-03-26T17:12:51.090Z,99457.44
2023-03-26T17:15:43.440Z,99452.44
2023-03-26T17:18:27.680Z,99447.41
2023-03-26T17:21:03.978Z,99459.25
2023-03-26T17:23:54.147Z,99460.00
2023-03-26T17:26:24.113Z,99466.50
2023-03-26T17:29:25.836Z,99459.47
2023-03-26T17:31:58.551Z,99458.03
2023-03-26T17:34:47.118Z,99461.56
2023-03-26T17:37:16.925Z,99460.69
2023-03-26T17:39:44.029Z,99459.81
2023-03-26T17:42:13.839Z,99459.72
2023-03-26T17:45:04.289Z,99456.69
2023-03-26T17:47:38.510Z,99453.63
2023-03-26T17:50:27.172Z,99455.53
2023-03-26T17:53:20.455Z,99458.81
2023-03-26T17:55:51.349Z,99460.66
2023-03-26T17:58:33.887Z,99461.91
2023-03-26T18:01:10.071Z,99463.16
2023-03-26T18:03:49.375Z,99459.22
2023-03-26T18:06:40.701Z,99464.84
2023-03-26T18:09:37.268Z,99465.53
2023-03-26T18:12:23.812Z,99466.75
2023-03-26T18:15:09.144Z,99461.81
2023-03-26T18:17:46.048Z,99468.81
2023-03-26T18:20:23.319Z,99461.09
2023-03-26T18:22:51.738Z,99466.28
2023-03-26T18:25:25.357Z,99463.06
2023-03-26T18:27:52.997Z,99464.06
2023-03-26T18:30:22.698Z,99467.81
2023-03-26T18:33:04.470Z,99472.78
2023-03-26T18:35:51.850Z,99469.22
2023-03-26T18:38:35.083Z,99464.44
2023-03-26T18:41:06.562Z,99469.25
2023-03-26T18:43:35.633Z,99465.06
2023-03-26T18:46:13.790Z,99470.81
2023-03-26T18:48:40.897Z,99467.25
2023-03-26T18:51:08.162Z,99470.81
2023-03-26T18:53:41.044Z,99465.66
2023-03-26T18:56:28.795Z,99462.47
2023-03-26T18:58:58.317Z,99461.88
2023-03-26T19:01:30.772Z,99464.66
2023-03-26T19:03:59.981Z,99464.88
2023-03-26T19:06:26.796Z,99462.91
2023-03-26T19:08:54.679Z,99458.16
2023-03-26T19:11:21.644Z,99458.34
2023-03-26T19:14:06.995Z,99450.63
2023-03-26T19:16:37.153Z,99457.19
2023-03-26T19:19:08.022Z,99450.06
2023-03-26T19:21:36.247Z,99454.25
2023-03-26T19:24:04.598Z,99454.06
2023-03-26T19:26:31.671Z,99449.72
2023-03-26T19:28:58.660Z,99449.72
2023-03-26T19:31:30.379Z,99450.91
2023-03-26T19:34:02.745Z,99449.50
2023-03-26T19:36:32.437Z,99447.34
2023-03-26T19:38:59.125Z,99452.91
2023-03-26T19:41:42.217Z,99452.53
2023-03-26T19:44:17.940Z,99458.31
2023-03-26T19:46:53.820Z,99450.75
2023-03-26T19:49:32.546Z,99445.59
2023-03-26T19:52:14.863Z,99449.75
2023-03-26T19:54:59.684Z,99446.00
2023-03-26T19:57:28.134Z,99449.75
2023-03-26T19:59:55.500Z,99452.97
2023-03-26T20:02:22.766Z,99451.75
2023-03-26T20:04:49.703Z,99448.97
2023-03-26T20:07:19.622Z,99445.38
2023-03-26T20:09:48.732Z,99441.81
2023-03-26T20:12:19.861Z,99437.22
2023-03-26T20:14:46.493Z,99442.19
2023-03-26T20:17:16.131Z,99434.44
2023-03-26T20:19:44.612Z,99439.41
2023-03-26T20:22:22.151Z,99434.06
2023-03-26T20:24:48.822Z,99437.22
2023-03-26T20:27:16.130Z,99431.88
2023-03-26T20:29:42.688Z,99430.69
2023-03-26T20:32:26.456Z,99430.69
2023-03-26T20:34:54.198Z,99434.47
2023-03-26T20:37:21.070Z,99433.25
2023-03-26T20:39:47.682Z,99435.88
2023-03-26T20:42:19.160Z,99434.06
2023-03-26T20:44:46.160Z,99426.50
2023-03-26T20:47:14.254Z,99436.66
2023-03-26T20:49:43.125Z,99434.84
2023-03-26T20:52:13.551Z,99433.28
2023-03-26T20:54:40.235Z,99426.91
2023-03-26T20:57:07.281Z,99429.88
2023-03-26T20:59:34.630Z,99424.31
2023-03-26T21:02:01.393Z,99429.28
2023-03-26T21:04:28.089Z,99437.22
2023-03-26T21:06:57.863Z,99440.19
2023-03-26T21:09:34.510Z,99439.22
2023-03-26T21:12:08.356Z,99436.78
2023-03-26T21:14:44.245Z,99442.13
2023-03-26T21:17:16.156Z,99443.28
2023-03-26T21:19:44.358Z,99443.91
2023-03-26T21:22:49.024Z,99440.06
2023-03-26T21:25:25.715Z,99442.22
2023-03-26T21:27:58.228Z,99439.63
2023-03-26T21:30:25.754Z,99441.78
2023-03-26T21:32:52.440Z,99436.19
2023-03-26T21:35:19.669Z,99436.94
2023-03-26T21:37:49.698Z,99440.31
2023-03-26T21:40:18.007Z,99442.81
2023-03-26T21:42:46.840Z,99440.03
2023-03-26T21:45:13.710Z,99442.25
2023-03-26T21:47:42.027Z,99426.22
2023-03-26T21:50:09.942Z,99436.97
2023-03-26T21:52:37.259Z,99440.00
2023-03-26T21:55:06.532Z,99443.06
2023-03-26T21:57:59.250Z,99440.91
2023-03-26T22:00:37.188Z,99433.56
2023-03-26T22:03:37.515Z,99428.41
2023-03-26T22:06:23.037Z,99431.59
2023-03-26T22:08:49.752Z,99430.81
2023-03-26T22:11:16.311Z,99432.44
2023-03-26T22:13:43.629Z,99442.19
2023-03-26T22:16:10.715Z,99446.16
2023-03-26T22:18:37.365Z,99434.44
2023-03-26T22:21:05.887Z,99451.53
2023-03-26T22:23:36.093Z,99457.09
2023-03-26T22:26:04.291Z,99451.13
2023-03-26T22:28:32.308Z,99462.88
2023-03-26T22:31:05.956Z,99457.09
2023-03-26T22:33:32.534Z,99463.81
2023-03-26T22:35:59.354Z,99465.81
2023-03-26T22:38:28.480Z,99464.44
2023-03-26T22:40:57.151Z,99465.00
2023-03-26T22:43:23.994Z,99476.53
2023-03-26T22:45:51.513Z,99476.31
2023-03-26T22:48:18.305Z,99471.50
2023-03-26T22:50:44.888Z,99470.31
2023-03-26T22:53:11.700Z,99481.00
2023-03-26T22:55:38.290Z,99478.22
2023-03-26T22:58:04.820Z,99477.63
2023-03-26T23:00:32.425Z,99479.00
2023-03-26T23:03:00.589Z,99471.66
2023-03-26T23:05:27.835Z,99468.03
2023-03-26T23:07:54.359Z,99468.63
2023-03-26T23:10:21.744Z,99462.84
2023-03-26T23:12:48.642Z,99464.03
2023-03-26T23:15:15.169Z,99472.16
2023-03-26T23:17:42.309Z,99478.66
2023-03-26T23:20:14.906Z,99481.84
2023-03-26T23:22:42.962Z,99488.75
2023-03-26T23:25:11.289Z,99490.69
2023-03-26T23:27:38.241Z,99492.25
2023-03-26T23:30:05.517Z,99489.44
2023-03-26T23:32:33.025Z,99503.09
2023-03-26T23:34:59.588Z,99516.56
2023-03-26T23:37:26.252Z,99528.25
2023-03-26T23:39:52.870Z,99535.97
2023-03-26T23:42:28.698Z,99532.22
2023-03-26T23:44:57.263Z,99540.75
2023-03-26T23:47:24.305Z,99546.28
2023-03-26T23:49:51.329Z,99551.81
2023-03-26T23:52:18.228Z,99553.16
2023-03-26T23:54:45.564Z,99551.50
2023-03-26T23:57:12.247Z,99558.56
2023-03-26T23:59:41.550Z,99562.88
